createdAt,value
2022-10-07T00:03:33.048Z,16.20
2022-10-07T00:08:37.951Z,16.00
2022-10-07T00:13:42.307Z,16.00
2022-10-07T00:18:47.144Z,16.10
2022-10-07T00:23:51.791Z,15.90
2022-10-07T00:28:55.234Z,15.90
2022-10-07T00:34:00.306Z,15.90
2022-10-07T00:39:07.572Z,15.80
2022-10-07T00:44:38.775Z,15.90
2022-10-07T00:49:48.712Z,15.90
2022-10-07T00:54:53.924Z,15.90
2022-10-07T00:59:57.671Z,15.90
2022-10-07T01:05:05.370Z,15.90
2022-10-07T01:10:11.616Z,15.70
2022-10-07T01:15:20.094Z,15.50
2022-10-07T01:20:32.901Z,15.70
2022-10-07T01:25:50.027Z,15.70
2022-10-07T01:30:59.165Z,15.60
2022-10-07T01:36:07.895Z,15.40
2022-10-07T01:41:15.258Z,15.10
2022-10-07T01:46:24.231Z,15.40
2022-10-07T01:51:31.325Z,15.50
2022-10-07T01:56:50.955Z,15.40
2022-10-07T02:02:04.167Z,15.40
2022-10-07T02:07:19.228Z,15.30
2022-10-07T02:12:30.882Z,15.10
2022-10-07T02:17:38.498Z,14.90
2022-10-07T02:22:43.842Z,15.30
2022-10-07T02:27:52.021Z,15.40
2022-10-07T02:32:59.998Z,15.50
2022-10-07T02:38:09.046Z,15.50
2022-10-07T02:43:16.411Z,15.50
2022-10-07T02:48:25.360Z,15.60
2022-10-07T02:53:32.216Z,15.50
2022-10-07T02:58:37.076Z,15.30
2022-10-07T03:03:42.483Z,15.30
2022-10-07T03:08:47.892Z,15.20
2022-10-07T03:13:51.323Z,15.10
2022-10-07T03:18:56.747Z,15.10
2022-10-07T03:24:08.027Z,15.30
2022-10-07T03:29:17.553Z,15.30
2022-10-07T03:34:23.133Z,15.20
2022-10-07T03:39:26.869Z,15.20
2022-10-07T03:44:29.961Z,15.30
2022-10-07T03:49:34.981Z,15.40
2022-10-07T03:54:38.294Z,15.40
2022-10-07T03:59:42.349Z,15.40
2022-10-07T04:04:46.950Z,15.20
2022-10-07T04:09:50.946Z,15.20
2022-10-07T04:14:54.253Z,15.10
2022-10-07T04:19:58.960Z,15.10
2022-10-07T04:25:20.421Z,15.20
2022-10-07T04:30:25.137Z,15.10
2022-10-07T04:35:30.000Z,15.10
2022-10-07T04:40:34.302Z,15.20
2022-10-07T04:45:40.652Z,15.40
2022-10-07T04:50:46.634Z,15.30
2022-10-07T04:55:52.069Z,15.20
2022-10-07T05:01:01.956Z,15.10
2022-10-07T05:06:07.616Z,15.10
2022-10-07T05:11:12.113Z,15.30
2022-10-07T05:16:23.585Z,15.30
2022-10-07T05:21:28.033Z,15.30
2022-10-07T05:26:31.112Z,15.00
2022-10-07T05:31:36.624Z,14.90
2022-10-07T05:36:42.745Z,15.10
2022-10-07T05:41:46.104Z,15.20
2022-10-07T05:46:52.374Z,15.20
2022-10-07T05:51:57.234Z,15.30
2022-10-07T05:57:00.527Z,15.20
2022-10-07T06:02:04.998Z,15.20
2022-10-07T06:07:10.564Z,15.30
2022-10-07T06:12:31.649Z,15.40
2022-10-07T06:17:37.848Z,15.40
2022-10-07T06:22:44.210Z,15.50
2022-10-07T06:27:53.869Z,15.40
2022-10-07T06:32:58.169Z,15.30
2022-10-07T06:38:02.871Z,15.20
2022-10-07T06:43:06.186Z,15.20
2022-10-07T06:48:18.462Z,15.30
2022-10-07T06:53:23.570Z,15.20
2022-10-07T06:58:27.624Z,15.20
2022-10-07T07:03:32.016Z,15.10
2022-10-07T07:08:41.130Z,15.30
2022-10-07T07:13:45.992Z,15.50
2022-10-07T07:18:52.636Z,15.50
2022-10-07T07:23:59.137Z,15.70
2022-10-07T07:29:04.595Z,15.60
2022-10-07T07:34:14.961Z,15.70
2022-10-07T07:39:21.460Z,15.70
2022-10-07T07:44:40.224Z,15.90
2022-10-07T07:49:49.536Z,16.00
2022-10-07T07:55:03.133Z,16.20
2022-10-07T08:00:08.109Z,16.30
2022-10-07T08:05:21.431Z,16.30
2022-10-07T08:10:29.082Z,16.30
2022-10-07T08:15:32.168Z,16.60
2022-10-07T08:20:36.843Z,16.60
2022-10-07T08:25:43.892Z,16.80
2022-10-07T08:30:47.209Z,16.80
2022-10-07T08:35:51.723Z,16.80
2022-10-07T08:40:56.088Z,16.70
2022-10-07T08:45:59.879Z,16.90
2022-10-07T08:51:13.664Z,16.90
2022-10-07T08:56:19.790Z,17.00
2022-10-07T09:01:35.141Z,17.10
2022-10-07T09:06:54.193Z,17.10
2022-10-07T09:12:01.003Z,17.20
2022-10-07T09:17:10.761Z,17.30
2022-10-07T09:22:21.403Z,17.20
2022-10-07T09:27:26.693Z,17.20
2022-10-07T09:32:29.765Z,17.40
2022-10-07T09:37:33.865Z,17.80
2022-10-07T09:42:43.138Z,18.20
2022-10-07T09:47:52.589Z,18.40
2022-10-07T09:52:56.980Z,18.10
2022-10-07T09:58:02.680Z,18.20
2022-10-07T10:03:07.926Z,18.30
2022-10-07T10:08:24.111Z,18.50
2022-10-07T10:13:31.447Z,18.60
2022-10-07T10:18:40.251Z,18.60
2022-10-07T10:23:46.654Z,19.00
2022-10-07T10:28:58.836Z,19.10
2022-10-07T10:34:09.489Z,19.20
2022-10-07T10:39:25.860Z,18.90
2022-10-07T10:44:46.996Z,19.00
2022-10-07T10:50:04.237Z,19.00
2022-10-07T10:55:40.546Z,19.20
2022-10-07T11:00:58.884Z,19.70
2022-10-07T11:06:07.663Z,19.60
2022-10-07T11:11:16.201Z,19.60
2022-10-07T11:16:25.518Z,19.50
2022-10-07T11:21:34.465Z,19.50
2022-10-07T11:26:42.675Z,19.80
2022-10-07T11:31:51.662Z,19.80
2022-10-07T11:37:03.096Z,19.80
2022-10-07T11:42:13.075Z,19.80
2022-10-07T11:47:22.342Z,19.90
2022-10-07T11:52:27.931Z,20.00
2022-10-07T11:57:33.870Z,20.20
2022-10-07T12:02:43.962Z,20.10
2022-10-07T12:08:01.575Z,20.30
2022-10-07T12:13:40.577Z,20.50
2022-10-07T12:19:24.072Z,20.50
2022-10-07T12:24:30.217Z,20.50
2022-10-07T12:29:53.344Z,20.50
2022-10-07T12:34:56.253Z,20.60
2022-10-07T12:40:00.869Z,20.70
2022-10-07T12:45:05.440Z,20.60
2022-10-07T12:50:13.775Z,20.80
2022-10-07T12:55:23.804Z,20.70
2022-10-07T13:00:31.801Z,20.80
2022-10-07T13:06:12.517Z,20.90
2022-10-07T13:11:44.294Z,20.80
2022-10-07T13:16:56.302Z,20.90
2022-10-07T13:22:07.613Z,20.90
2022-10-07T13:27:12.641Z,21.10
2022-10-07T13:32:17.243Z,21.20
2022-10-07T13:37:27.559Z,21.30
2022-10-07T13:42:31.907Z,21.10
2022-10-07T13:47:36.485Z,21.20
2022-10-07T13:52:44.403Z,21.20
2022-10-07T13:57:49.420Z,21.30
2022-10-07T14:02:53.168Z,21.30
2022-10-07T14:07:58.167Z,21.30
2022-10-07T14:13:07.191Z,21.50
2022-10-07T14:18:13.729Z,21.50
2022-10-07T14:23:22.128Z,21.60
2022-10-07T14:28:32.591Z,21.70
2022-10-07T14:34:06.522Z,21.70
2022-10-07T14:39:30.919Z,21.80
2022-10-07T14:44:35.960Z,21.70
2022-10-07T14:49:38.866Z,21.60
2022-10-07T14:54:42.002Z,21.80
2022-10-07T14:59:49.724Z,21.80
2022-10-07T15:04:52.807Z,21.90
2022-10-07T15:09:55.757Z,21.90
2022-10-07T15:14:59.975Z,21.90
2022-10-07T15:20:10.345Z,21.90
2022-10-07T15:25:15.682Z,22.00
2022-10-07T15:30:20.048Z,22.00
2022-10-07T15:35:22.908Z,22.00
2022-10-07T15:40:27.842Z,21.90
2022-10-07T15:45:32.043Z,21.90
2022-10-07T15:50:34.910Z,21.90
2022-10-07T15:55:37.770Z,21.80
2022-10-07T16:00:41.975Z,21.70
2022-10-07T16:05:44.857Z,21.60
2022-10-07T16:10:47.717Z,21.50
2022-10-07T16:16:02.110Z,21.40
2022-10-07T16:21:06.345Z,21.40
2022-10-07T16:26:11.127Z,21.50
2022-10-07T16:31:17.835Z,21.50
2022-10-07T16:36:22.248Z,21.40
2022-10-07T16:41:25.285Z,21.40
2022-10-07T16:46:40.821Z,21.30
2022-10-07T16:51:44.721Z,21.20
2022-10-07T16:56:49.911Z,21.10
2022-10-07T17:02:07.343Z,21.00
2022-10-07T17:07:10.252Z,20.90
2022-10-07T17:12:13.152Z,20.80
2022-10-07T17:17:18.987Z,20.70
2022-10-07T17:22:21.852Z,20.60
2022-10-07T17:27:24.733Z,20.50
2022-10-07T17:32:29.357Z,20.40
2022-10-07T17:37:32.338Z,20.30
2022-10-07T17:42:50.296Z,20.30
2022-10-07T17:47:57.499Z,20.20
2022-10-07T17:53:07.780Z,20.00
2022-10-07T17:58:10.663Z,19.60
2022-10-07T18:03:22.863Z,19.30
2022-10-07T18:08:26.408Z,19.40
2022-10-07T18:13:51.732Z,19.50
2022-10-07T18:18:57.426Z,19.50
2022-10-07T18:24:00.298Z,19.60
2022-10-07T18:29:03.152Z,19.50
2022-10-07T18:34:07.421Z,19.50
2022-10-07T18:39:13.114Z,19.40
2022-10-07T18:44:16.516Z,19.30
2022-10-07T18:49:21.036Z,19.30
2022-10-07T18:54:24.094Z,19.30
2022-10-07T18:59:27.019Z,19.20
2022-10-07T19:04:31.808Z,19.00
2022-10-07T19:09:35.469Z,19.10
2022-10-07T19:14:38.458Z,19.10
2022-10-07T19:19:43.368Z,19.00
2022-10-07T19:25:03.887Z,19.10
2022-10-07T19:30:08.135Z,19.00
2022-10-07T19:35:12.479Z,19.10
2022-10-07T19:40:15.346Z,19.00
2022-10-07T19:45:18.934Z,19.00
2022-10-07T19:50:24.030Z,19.10
2022-10-07T19:55:28.244Z,18.90
2022-10-07T20:00:32.098Z,18.60
2022-10-07T20:05:40.946Z,18.70
2022-10-07T20:10:43.881Z,18.60
2022-10-07T20:15:46.752Z,18.70
2022-10-07T20:20:50.981Z,18.60
2022-10-07T20:25:53.917Z,18.70
2022-10-07T20:30:57.688Z,18.60
2022-10-07T20:36:04.240Z,18.70
2022-10-07T20:41:24.584Z,18.70
2022-10-07T20:46:27.473Z,18.60
2022-10-07T20:51:32.205Z,18.40
2022-10-07T20:56:35.100Z,18.50
2022-10-07T21:01:40.126Z,18.60
2022-10-07T21:06:44.580Z,18.50
2022-10-07T21:11:48.264Z,18.50
2022-10-07T21:16:52.156Z,18.40
2022-10-07T21:21:56.505Z,18.30
2022-10-07T21:26:59.385Z,17.70
2022-10-07T21:32:03.579Z,17.60
2022-10-07T21:37:07.900Z,18.00
2022-10-07T21:42:10.787Z,18.20
2022-10-07T21:47:13.658Z,18.20
2022-10-07T21:52:17.883Z,18.30
2022-10-07T21:57:20.749Z,18.30
2022-10-07T22:02:23.721Z,18.40
2022-10-07T22:07:47.639Z,18.00
2022-10-07T22:12:50.552Z,18.00
2022-10-07T22:17:56.488Z,17.90
2022-10-07T22:23:01.931Z,17.90
2022-10-07T22:28:05.120Z,17.90
2022-10-07T22:33:11.158Z,17.90
2022-10-07T22:38:21.257Z,18.10
2022-10-07T22:43:28.899Z,18.10
2022-10-07T22:48:33.833Z,18.10
2022-10-07T22:53:40.610Z,18.10
2022-10-07T22:58:45.188Z,17.80
2022-10-07T23:03:48.474Z,18.00
2022-10-07T23:08:57.824Z,18.00
2022-10-07T23:14:01.487Z,18.10
2022-10-07T23:19:04.741Z,18.00
2022-10-07T23:24:10.068Z,18.00
2022-10-07T23:29:14.698Z,17.90
2022-10-07T23:34:18.743Z,17.80
2022-10-07T23:39:27.756Z,17.60
2022-10-07T23:44:30.869Z,17.70
2022-10-07T23:49:33.854Z,17.70
2022-10-07T23:54:38.247Z,17.60
2022-10-07T23:59:41.234Z,17.50
